createdAt,value
2022-12-16T00:00:06.916Z,138.43
2022-12-16T00:02:33.912Z,99.67
2022-12-16T00:05:00.958Z,128.07
2022-12-16T00:07:28.682Z,245.20
2022-12-16T00:09:55.581Z,104.90
2022-12-16T00:12:22.813Z,183.70
2022-12-16T00:14:49.718Z,269.47
2022-12-16T00:17:17.582Z,178.03
2022-12-16T00:19:44.472Z,109.50
2022-12-16T00:22:11.394Z,104.73
2022-12-16T00:24:38.308Z,144.33
2022-12-16T00:27:05.248Z,57.13
2022-12-16T00:29:32.248Z,253.63
2022-12-16T00:31:59.322Z,200.00
2022-12-16T00:34:26.261Z,97.33
2022-12-16T00:36:53.132Z,124.10
2022-12-16T00:39:20.039Z,36.40
2022-12-16T00:41:47.742Z,12.13
2022-12-16T00:44:14.683Z,25.13
2022-12-16T00:46:41.636Z,75.23
2022-12-16T00:49:08.580Z,43.93
2022-12-16T00:51:35.669Z,57.40
2022-12-16T00:54:02.581Z,72.83
2022-12-16T00:56:29.491Z,77.57
2022-12-16T00:58:56.471Z,88.73
2022-12-16T01:01:23.740Z,40.63
2022-12-16T01:03:50.677Z,8.47
2022-12-16T01:06:18.207Z,48.80
2022-12-16T01:08:48.731Z,24.97
2022-12-16T01:11:18.095Z,33.57
2022-12-16T01:13:46.337Z,28.07
2022-12-16T01:16:13.497Z,73.77
2022-12-16T01:18:40.610Z,57.07
2022-12-16T01:21:08.636Z,42.70
2022-12-16T01:23:36.093Z,24.47
2022-12-16T01:26:03.782Z,45.77
2022-12-16T01:28:30.700Z,50.13
2022-12-16T01:31:01.998Z,63.67
2022-12-16T01:33:30.629Z,48.47
2022-12-16T01:36:16.787Z,53.13
2022-12-16T01:38:44.521Z,49.73
2022-12-16T01:41:13.524Z,65.20
2022-12-16T01:43:41.916Z,95.30
2022-12-16T01:46:13.280Z,66.57
2022-12-16T01:49:00.568Z,24.00
2022-12-16T01:51:35.761Z,59.90
2022-12-16T01:54:10.487Z,64.90
2022-12-16T01:56:42.062Z,70.50
2022-12-16T01:59:11.540Z,21.13
2022-12-16T02:01:38.575Z,55.17
2022-12-16T02:04:05.688Z,9.50
2022-12-16T02:06:32.742Z,50.40
2022-12-16T02:09:03.149Z,52.77
2022-12-16T02:11:45.121Z,40.57
2022-12-16T02:14:15.008Z,50.27
2022-12-16T02:17:00.575Z,55.77
2022-12-16T02:19:33.375Z,14.90
2022-12-16T02:22:19.195Z,13.73
2022-12-16T02:25:19.825Z,38.10
2022-12-16T02:27:52.667Z,57.57
2022-12-16T02:30:39.152Z,28.13
2022-12-16T02:33:24.878Z,14.10
2022-12-16T02:36:06.732Z,17.03
2022-12-16T02:38:43.936Z,34.43
2022-12-16T02:41:23.621Z,45.27
2022-12-16T02:44:06.416Z,34.40
2022-12-16T02:46:40.095Z,55.53
2022-12-16T02:49:13.146Z,48.83
2022-12-16T02:51:40.313Z,59.87
2022-12-16T02:54:09.417Z,26.63
2022-12-16T02:56:48.685Z,52.17
2022-12-16T02:59:46.138Z,47.83
2022-12-16T03:02:19.512Z,46.43
2022-12-16T03:05:19.475Z,44.57
2022-12-16T03:07:48.947Z,47.03
2022-12-16T03:10:19.468Z,33.03
2022-12-16T03:12:46.805Z,20.50
2022-12-16T03:15:19.167Z,21.27
2022-12-16T03:17:48.720Z,12.40
2022-12-16T03:20:28.093Z,16.93
2022-12-16T03:22:59.005Z,30.80
2022-12-16T03:25:28.242Z,30.97
2022-12-16T03:28:21.042Z,13.47
2022-12-16T03:30:54.512Z,32.73
2022-12-16T03:33:34.768Z,40.70
2022-12-16T03:36:17.238Z,24.57
2022-12-16T03:38:46.695Z,46.73
2022-12-16T03:41:15.999Z,31.30
2022-12-16T03:43:43.822Z,17.40
2022-12-16T03:46:12.979Z,22.83
2022-12-16T03:48:51.969Z,47.50
2022-12-16T03:51:19.820Z,47.30
2022-12-16T03:53:47.007Z,44.50
2022-12-16T03:56:14.205Z,48.10
2022-12-16T03:58:41.485Z,42.53
2022-12-16T04:01:09.879Z,31.23
2022-12-16T04:03:39.826Z,48.10
2022-12-16T04:06:07.240Z,41.90
2022-12-16T04:08:34.261Z,37.30
2022-12-16T04:11:19.567Z,38.03
2022-12-16T04:14:04.917Z,20.90
2022-12-16T04:16:53.484Z,39.33
2022-12-16T04:19:44.453Z,30.50
2022-12-16T04:22:33.107Z,36.07
2022-12-16T04:25:05.973Z,39.77
2022-12-16T04:27:33.078Z,38.67
2022-12-16T04:30:18.556Z,35.03
2022-12-16T04:33:14.182Z,25.80
2022-12-16T04:35:59.761Z,26.83
2022-12-16T04:39:02.427Z,27.63
2022-12-16T04:41:48.303Z,34.97
2022-12-16T04:44:34.012Z,27.90
2022-12-16T04:47:19.801Z,13.43
2022-12-16T04:50:05.249Z,33.73
2022-12-16T04:52:51.184Z,33.73
2022-12-16T04:55:36.652Z,31.90
2022-12-16T04:58:22.744Z,32.33
2022-12-16T05:01:08.749Z,27.27
2022-12-16T05:03:54.320Z,36.97
2022-12-16T05:06:40.504Z,33.83
2022-12-16T05:09:26.568Z,32.30
2022-12-16T05:12:12.068Z,32.00
2022-12-16T05:14:57.395Z,25.80
2022-12-16T05:17:43.557Z,27.53
2022-12-16T05:20:29.522Z,18.70
2022-12-16T05:23:15.494Z,19.07
2022-12-16T05:26:01.634Z,32.00
2022-12-16T05:28:47.034Z,41.07
2022-12-16T05:31:32.381Z,41.50
2022-12-16T05:34:17.732Z,39.60
2022-12-16T05:37:03.240Z,41.67
2022-12-16T05:39:49.044Z,41.03
2022-12-16T05:42:34.544Z,47.47
2022-12-16T05:45:19.967Z,39.47
2022-12-16T05:48:07.443Z,41.03
2022-12-16T05:50:53.511Z,36.47
2022-12-16T05:53:41.535Z,42.87
2022-12-16T05:56:26.886Z,43.33
2022-12-16T05:59:12.400Z,41.43
2022-12-16T06:01:57.849Z,29.87
2022-12-16T06:04:43.558Z,39.80
2022-12-16T06:07:28.778Z,43.77
2022-12-16T06:10:14.270Z,39.23
2022-12-16T06:12:59.806Z,41.93
2022-12-16T06:15:45.159Z,22.60
2022-12-16T06:18:30.592Z,38.83
2022-12-16T06:21:15.920Z,38.63
2022-12-16T06:24:01.246Z,38.63
2022-12-16T06:26:46.581Z,35.40
2022-12-16T06:29:32.521Z,41.50
2022-12-16T06:32:18.244Z,35.70
2022-12-16T06:35:03.986Z,37.90
2022-12-16T06:37:49.809Z,41.07
2022-12-16T06:40:35.288Z,37.37
2022-12-16T06:43:20.688Z,37.73
2022-12-16T06:46:06.476Z,22.33
2022-12-16T06:48:51.988Z,33.30
2022-12-16T06:51:37.782Z,32.77
2022-12-16T06:54:23.329Z,35.20
2022-12-16T06:57:08.704Z,33.07
2022-12-16T06:59:54.114Z,37.03
2022-12-16T07:02:39.462Z,38.20
2022-12-16T07:05:25.071Z,37.43
2022-12-16T07:08:11.024Z,32.47
2022-12-16T07:11:02.325Z,37.73
2022-12-16T07:13:54.719Z,34.87
2022-12-16T07:16:40.195Z,37.23
2022-12-16T07:19:25.863Z,34.73
2022-12-16T07:22:11.514Z,38.70
2022-12-16T07:24:56.924Z,32.30
2022-12-16T07:27:42.318Z,25.73
2022-12-16T07:30:28.248Z,27.47
2022-12-16T07:33:14.343Z,24.03
2022-12-16T07:36:02.169Z,29.97
2022-12-16T07:38:48.175Z,31.47
2022-12-16T07:41:33.591Z,37.33
2022-12-16T07:44:19.001Z,26.37
2022-12-16T07:47:04.477Z,23.63
2022-12-16T07:49:49.934Z,35.70
2022-12-16T07:52:35.436Z,23.93
2022-12-16T07:55:20.872Z,30.40
2022-12-16T07:58:09.940Z,16.23
2022-12-16T08:00:55.708Z,29.03
2022-12-16T08:03:41.894Z,36.30
2022-12-16T08:06:27.573Z,15.20
2022-12-16T08:09:14.048Z,34.50
2022-12-16T08:11:59.970Z,32.43
2022-12-16T08:14:45.477Z,12.00
2022-12-16T08:17:30.923Z,28.40
2022-12-16T08:20:16.189Z,22.90
2022-12-16T08:23:01.548Z,33.27
2022-12-16T08:25:46.937Z,30.63
2022-12-16T08:28:32.122Z,32.57
2022-12-16T08:31:17.680Z,18.00
2022-12-16T08:34:03.276Z,12.83
2022-12-16T08:36:48.982Z,29.33
2022-12-16T08:39:34.750Z,30.67
2022-12-16T08:42:20.321Z,30.57
2022-12-16T08:45:05.959Z,23.90
2022-12-16T08:47:51.476Z,21.20
2022-12-16T08:50:37.181Z,24.90
2022-12-16T08:53:22.801Z,23.77
2022-12-16T08:56:08.166Z,29.63
2022-12-16T08:58:54.420Z,24.80
2022-12-16T09:01:41.649Z,26.60
2022-12-16T09:04:27.157Z,26.30
2022-12-16T09:07:12.797Z,28.17
2022-12-16T09:09:58.475Z,14.20
2022-12-16T09:12:44.051Z,12.30
2022-12-16T09:15:29.795Z,18.87
2022-12-16T09:18:15.693Z,15.03
2022-12-16T09:21:01.249Z,14.63
2022-12-16T09:23:46.926Z,12.27
2022-12-16T09:26:32.609Z,8.07
2022-12-16T09:29:18.807Z,8.37
2022-12-16T09:32:04.199Z,7.50
2022-12-16T09:34:49.566Z,13.13
2022-12-16T09:37:34.910Z,12.20
2022-12-16T09:40:20.923Z,15.60
2022-12-16T09:43:12.893Z,14.17
2022-12-16T09:46:13.612Z,11.80
2022-12-16T09:49:14.527Z,8.97
2022-12-16T09:52:02.657Z,12.47
2022-12-16T09:54:53.287Z,13.43
2022-12-16T09:57:45.269Z,8.73
2022-12-16T10:00:41.511Z,7.13
2022-12-16T10:04:04.495Z,8.50
2022-12-16T10:06:53.377Z,15.85
2022-12-16T10:09:42.050Z,13.27
2022-12-16T10:12:30.410Z,10.03
2022-12-16T10:15:30.491Z,10.43
2022-12-16T10:18:34.900Z,8.13
2022-12-16T10:21:21.721Z,10.53
2022-12-16T10:24:27.790Z,6.30
2022-12-16T10:27:59.288Z,7.03
2022-12-16T10:30:45.082Z,3.20
2022-12-16T10:33:33.752Z,6.23
2022-12-16T10:36:19.557Z,12.30
2022-12-16T10:39:08.303Z,11.13
2022-12-16T10:41:57.830Z,13.87
2022-12-16T10:45:14.127Z,12.40
2022-12-16T10:48:00.130Z,9.10
2022-12-16T10:50:45.667Z,12.10
2022-12-16T10:53:43.502Z,11.70
2022-12-16T10:56:56.663Z,10.90
2022-12-16T10:59:52.350Z,13.23
2022-12-16T11:02:39.967Z,10.73
2022-12-16T11:05:44.907Z,9.20
2022-12-16T11:08:52.392Z,11.07
2022-12-16T11:11:45.586Z,12.13
2022-12-16T11:14:42.116Z,12.70
2022-12-16T11:17:45.205Z,15.50
2022-12-16T11:20:41.366Z,12.27
2022-12-16T11:23:38.825Z,12.10
2022-12-16T11:26:37.943Z,8.53
2022-12-16T11:29:37.404Z,12.73
2022-12-16T11:32:40.008Z,9.23
2022-12-16T11:35:34.136Z,13.37
2022-12-16T11:38:22.441Z,9.53
2022-12-16T11:41:09.179Z,9.63
2022-12-16T11:43:58.205Z,12.13
2022-12-16T11:46:45.592Z,8.83
2022-12-16T11:49:49.128Z,14.03
2022-12-16T11:52:40.059Z,11.57
2022-12-16T11:56:03.555Z,10.57
2022-12-16T11:59:05.247Z,5.13
2022-12-16T12:02:05.949Z,9.70
2022-12-16T12:04:51.481Z,9.77
2022-12-16T12:07:45.873Z,10.13
2022-12-16T12:11:09.811Z,6.87
2022-12-16T12:14:15.787Z,7.57
2022-12-16T12:17:15.008Z,6.10
2022-12-16T12:20:12.616Z,10.17
2022-12-16T12:22:59.144Z,5.77
2022-12-16T12:26:03.877Z,7.63
2022-12-16T12:29:13.905Z,8.23
2022-12-16T12:32:10.992Z,5.70
2022-12-16T12:35:02.022Z,6.17
2022-12-16T12:37:53.456Z,7.70
2022-12-16T12:40:59.128Z,7.03
2022-12-16T12:44:36.414Z,9.57
2022-12-16T12:47:31.084Z,9.80
2022-12-16T12:50:49.470Z,8.10
2022-12-16T12:53:47.339Z,9.73
2022-12-16T12:57:00.784Z,7.57
2022-12-16T13:00:05.911Z,12.67
2022-12-16T13:03:14.842Z,4.57
2022-12-16T13:06:01.354Z,11.30
2022-12-16T13:08:51.416Z,6.70
2022-12-16T13:11:37.324Z,10.00
2022-12-16T13:14:52.952Z,8.93
2022-12-16T13:17:40.007Z,11.63
2022-12-16T13:20:55.500Z,10.33
2022-12-16T13:23:54.218Z,12.57
2022-12-16T13:26:42.775Z,11.57
2022-12-16T13:29:45.565Z,12.80
2022-12-16T13:32:36.171Z,14.07
2022-12-16T13:35:27.645Z,13.57
2022-12-16T13:38:14.452Z,16.30
2022-12-16T13:41:19.453Z,15.70
2022-12-16T13:44:18.699Z,14.17
2022-12-16T13:47:22.309Z,12.83
2022-12-16T13:50:12.220Z,11.43
2022-12-16T13:53:23.259Z,15.67
2022-12-16T13:56:16.217Z,10.30
2022-12-16T13:59:11.877Z,11.90
2022-12-16T14:02:13.728Z,11.33
2022-12-16T14:05:03.609Z,14.17
2022-12-16T14:07:55.935Z,11.67
2022-12-16T14:10:51.923Z,12.23
2022-12-16T14:13:52.069Z,9.43
2022-12-16T14:16:54.301Z,10.60
2022-12-16T14:20:04.586Z,9.93
2022-12-16T14:23:54.578Z,9.00
2022-12-16T14:26:31.901Z,10.30
2022-12-16T14:29:19.411Z,12.43
2022-12-16T14:32:05.106Z,17.50
2022-12-16T14:34:53.021Z,14.17
2022-12-16T14:37:51.523Z,13.43
2022-12-16T14:40:40.366Z,18.37
2022-12-16T14:43:41.217Z,17.10
2022-12-16T14:46:50.242Z,18.10
2022-12-16T14:49:48.896Z,25.27
2022-12-16T14:52:38.383Z,17.27
2022-12-16T14:55:36.170Z,15.57
2022-12-16T14:58:34.084Z,14.63
2022-12-16T15:01:29.376Z,14.63
2022-12-16T15:04:15.636Z,16.57
2022-12-16T15:07:07.677Z,16.37
2022-12-16T15:09:59.342Z,16.30
2022-12-16T15:12:53.049Z,13.33
2022-12-16T15:15:52.629Z,18.60
2022-12-16T15:19:04.789Z,15.00
2022-12-16T15:22:05.078Z,16.23
2022-12-16T15:24:56.299Z,13.63
2022-12-16T15:27:44.753Z,11.10
2022-12-16T15:31:03.380Z,13.13
2022-12-16T15:33:53.497Z,13.43
2022-12-16T15:36:49.830Z,12.77
2022-12-16T15:39:47.985Z,11.70
2022-12-16T15:42:47.011Z,15.33
2022-12-16T15:45:41.888Z,14.27
2022-12-16T15:48:38.103Z,11.20
2022-12-16T15:51:38.029Z,11.87
2022-12-16T15:54:23.886Z,14.57
2022-12-16T15:57:09.408Z,12.90
2022-12-16T16:00:15.120Z,12.83
2022-12-16T16:03:06.879Z,11.20
2022-12-16T16:05:54.798Z,14.27
2022-12-16T16:08:40.151Z,11.50
2022-12-16T16:11:27.467Z,15.00
2022-12-16T16:14:14.552Z,15.37
2022-12-16T16:17:00.320Z,13.10
2022-12-16T16:19:46.387Z,10.23
2022-12-16T16:22:34.695Z,11.90
2022-12-16T16:25:20.160Z,15.97
2022-12-16T16:28:05.960Z,13.87
2022-12-16T16:30:51.929Z,11.70
2022-12-16T16:33:37.753Z,12.07
2022-12-16T16:36:35.396Z,13.57
2022-12-16T16:39:20.891Z,14.57
2022-12-16T16:42:06.453Z,12.77
2022-12-16T16:44:52.313Z,15.03
2022-12-16T16:47:38.632Z,18.07
2022-12-16T16:50:25.548Z,11.67
2022-12-16T16:53:11.136Z,13.80
2022-12-16T16:55:56.456Z,17.27
2022-12-16T16:58:48.437Z,18.70
2022-12-16T17:01:36.469Z,14.57
2022-12-16T17:04:22.640Z,14.87
2022-12-16T17:07:08.312Z,11.57
2022-12-16T17:09:53.722Z,11.60
2022-12-16T17:12:44.145Z,15.30
2022-12-16T17:15:38.389Z,15.03
2022-12-16T17:18:24.536Z,14.07
2022-12-16T17:21:11.146Z,14.63
2022-12-16T17:23:57.609Z,14.10
2022-12-16T17:26:43.699Z,18.07
2022-12-16T17:29:47.839Z,15.53
2022-12-16T17:32:35.427Z,16.90
2022-12-16T17:35:20.754Z,13.57
2022-12-16T17:38:06.387Z,14.23
2022-12-16T17:40:52.175Z,12.93
2022-12-16T17:43:48.747Z,13.80
2022-12-16T17:46:34.340Z,14.37
2022-12-16T17:49:20.252Z,12.10
2022-12-16T17:52:05.930Z,12.77
2022-12-16T17:54:51.550Z,12.37
2022-12-16T17:57:36.883Z,12.97
2022-12-16T18:00:23.710Z,14.47
2022-12-16T18:03:09.404Z,14.23
2022-12-16T18:05:54.886Z,12.50
2022-12-16T18:08:40.458Z,13.33
2022-12-16T18:11:26.046Z,14.23
2022-12-16T18:14:11.345Z,11.53
2022-12-16T18:16:56.876Z,12.40
2022-12-16T18:19:43.688Z,10.10
2022-12-16T18:22:29.113Z,11.00
2022-12-16T18:25:14.529Z,14.43
2022-12-16T18:27:59.844Z,14.50
2022-12-16T18:30:45.320Z,13.60
2022-12-16T18:33:30.864Z,13.40
2022-12-16T18:36:16.494Z,12.03
2022-12-16T18:39:01.833Z,14.10
2022-12-16T18:41:47.563Z,12.87
2022-12-16T18:44:33.552Z,14.30
2022-12-16T18:47:18.868Z,11.80
2022-12-16T18:50:04.295Z,13.63
2022-12-16T18:52:52.915Z,11.00
2022-12-16T18:55:38.793Z,11.13
2022-12-16T19:01:30.830Z,10.00
2022-12-16T19:04:16.826Z,11.60
2022-12-16T19:07:02.369Z,14.20
2022-12-16T19:09:47.938Z,11.23
2022-12-16T19:12:33.298Z,11.63
2022-12-16T19:15:19.135Z,11.40
2022-12-16T19:18:04.485Z,10.70
2022-12-16T19:20:49.962Z,12.67
2022-12-16T19:23:36.003Z,14.60
2022-12-16T19:26:21.801Z,13.43
2022-12-16T19:29:07.314Z,13.00
2022-12-16T19:32:09.694Z,13.73
2022-12-16T19:34:56.852Z,13.20
2022-12-16T19:37:42.484Z,11.83
2022-12-16T19:40:28.529Z,12.27
2022-12-16T19:43:13.870Z,13.43
2022-12-16T19:45:59.398Z,12.97
2022-12-16T19:48:44.704Z,9.40
2022-12-16T19:51:30.182Z,10.17
2022-12-16T19:54:15.518Z,11.33
2022-12-16T19:57:01.399Z,9.53
2022-12-16T19:59:46.835Z,12.80
2022-12-16T20:02:32.426Z,11.60
2022-12-16T20:05:18.025Z,13.43
2022-12-16T20:08:03.310Z,10.23
2022-12-16T20:10:48.665Z,10.30
2022-12-16T20:13:34.255Z,9.87
2022-12-16T20:16:26.979Z,12.87
2022-12-16T20:19:13.370Z,11.60
2022-12-16T20:25:05.394Z,9.20
2022-12-16T20:27:50.980Z,12.17
2022-12-16T20:30:37.063Z,10.20
2022-12-16T20:33:22.945Z,12.30
2022-12-16T20:36:16.612Z,11.30
2022-12-16T20:39:02.392Z,11.03
2022-12-16T20:41:47.765Z,12.17
2022-12-16T20:44:33.307Z,10.60
2022-12-16T20:47:21.087Z,9.93
2022-12-16T20:50:07.017Z,10.57
2022-12-16T20:52:52.351Z,11.27
2022-12-16T20:55:38.942Z,10.40
2022-12-16T20:58:24.477Z,10.07
2022-12-16T21:01:11.785Z,10.03
2022-12-16T21:03:57.046Z,8.50
2022-12-16T21:06:42.956Z,8.93
2022-12-16T21:09:28.435Z,9.90
2022-12-16T21:12:13.933Z,10.57
2022-12-16T21:14:59.464Z,12.70
2022-12-16T21:17:44.895Z,11.37
2022-12-16T21:20:30.795Z,11.17
2022-12-16T21:23:35.508Z,10.67
2022-12-16T21:26:37.975Z,10.93
2022-12-16T21:29:23.796Z,11.10
2022-12-16T21:32:09.253Z,9.80
2022-12-16T21:34:54.739Z,12.47
2022-12-16T21:37:42.096Z,11.13
2022-12-16T21:40:27.920Z,11.10
2022-12-16T21:43:13.577Z,11.20
2022-12-16T21:45:59.000Z,11.67
2022-12-16T21:48:44.522Z,11.67
2022-12-16T21:51:29.959Z,11.77
2022-12-16T21:54:15.293Z,8.20
2022-12-16T21:57:00.918Z,12.60
2022-12-16T21:59:46.341Z,10.27
2022-12-16T22:02:33.306Z,10.00
2022-12-16T22:05:18.819Z,9.97
2022-12-16T22:08:04.254Z,19.63
2022-12-16T22:10:49.650Z,13.90
2022-12-16T22:13:35.190Z,41.90
2022-12-16T22:16:20.960Z,10.13
2022-12-16T22:19:06.949Z,11.47
2022-12-16T22:21:52.342Z,8.33
2022-12-16T22:24:38.685Z,13.40
2022-12-16T22:27:24.232Z,13.80
2022-12-16T22:30:09.529Z,43.20
2022-12-16T22:32:55.105Z,21.60
2022-12-16T22:35:42.003Z,15.27
2022-12-16T22:38:27.335Z,13.50
2022-12-16T22:41:17.757Z,14.77
2022-12-16T22:44:03.912Z,18.43
2022-12-16T22:46:49.703Z,13.60
2022-12-16T22:49:35.695Z,12.27
2022-12-16T22:52:21.189Z,11.50
2022-12-16T22:55:06.711Z,21.60
2022-12-16T22:57:53.394Z,16.03
2022-12-16T23:00:39.068Z,20.27
2022-12-16T23:03:24.519Z,22.33
2022-12-16T23:06:09.996Z,24.60
2022-12-16T23:08:55.428Z,18.30
2022-12-16T23:11:56.472Z,22.20
2022-12-16T23:14:43.119Z,19.50
2022-12-16T23:17:30.354Z,16.23
2022-12-16T23:20:16.153Z,18.47
2022-12-16T23:23:01.486Z,16.13
2022-12-16T23:25:46.903Z,16.10
2022-12-16T23:28:32.263Z,15.10
2022-12-16T23:31:20.178Z,16.03
2022-12-16T23:34:05.685Z,13.33
2022-12-16T23:36:51.191Z,15.10
2022-12-16T23:39:38.757Z,15.17
2022-12-16T23:42:24.098Z,12.17
2022-12-16T23:45:09.751Z,13.60
2022-12-16T23:47:55.250Z,13.30
2022-12-16T23:50:41.804Z,11.57
2022-12-16T23:53:49.390Z,12.53
2022-12-16T23:56:34.938Z,14.77
2022-12-16T23:59:20.735Z,17.13
